Airfield :
LOGIN :

Register | Disclaimer

   EN    FR    IT 

 










Legend :    VFR   Marginal VFR   IFR   Intensive IFR   Very Intensive IFR
Visi :
Ceiling :
>= 8 km
>= 3000ft
5 to 8 km
1000 to 3000 ft
1500m to 5 km
500 to 1000 ft
800 to 1500m
200 to 500 ft
< 800m
< 200 ft
Symbols :   Thunderstorms  Fog  Heavy snow  Heavy precipitations  Wind > 20 kt
SIGMETs :     Misc.  Thunderstorms  Icing  Turbulence  Mountain Waves  Volcanic Ashes






- Airport Elevation : 13 ft
- IATA code : LYX


EGMD - Lydd

CURRENT METAR :
  • 071650Z 24019KT 9999 FEW021 17/12 Q1018

EXPIRED METARs :
  • 071620Z 24018KT 9999 FEW021 17/12 Q1018
  • 071550Z 24019KT 9999 FEW021 17/13 Q1018
  • 071520Z 24019KT 9999 SCT021 17/13 Q1018

TAF AMD TAF EGMD
Valid from the 07 at 18:00 until the 08 at 03:00 UTC


071729Z 0718/0803 24015KT 9999 SCT015
PROB30
TEMPO 0718/0724 24018G28KT 8000 SHRA
ATIS : +44 1797 322 422



MET'MAP, your aeronautical weather chart ! - Copyright ORBIFLY December 2007 - Disclaimer

ORBIFLY MET'MAP TEAM :

Programming & Development : Alexandra Zaïnal
Original concept : Baudouin d'Aumeries
Technical & hardware support : Manuel Goepfert
Assistance : Marc-Olivier Méhu




SOURCES & CREDITS :

   NOAA